KGPT/GPT METAR and TAF weather

Enter ICAO airport designator
Station Type Date Time Source
KGPT METAR 2021/03/01 04:23 UTC NOAA

KGPT 010423Z 17005KT 1 3/4SM BR OVC002 21/20 A2999 RMK AO2 T02110200


Station Type Date Time Source
KGPT Decoded METAR 2021/03/01 04:23 UTC NOAA

GULFPORT-BILOXI REG AIRPORT , MS, United States (KGPT) 30-25N 089-05W 14M
Feb 28, 2021 - 11:23 PM EST / 2021.03.01 0423 UTC
Wind: from the S (170 degrees) at 6 MPH (5 KT):0
Visibility: 1 3/4 mile(s):0
Sky conditions: overcast
Weather: mist
Temperature: 70.0 F (21.1 C)
Dew Point: 68.0 F (20.0 C)
Relative Humidity: 93%
Pressure (altimeter): 29.99 in. Hg (1015 hPa)
ob: KGPT 010423Z 17005KT 1 3/4SM BR OVC002 21/20 A2999 RMK AO2 T02110200
cycle: 4

Station Type Date Time Source
KGPT TAF 2021/03/01 01:06 UTC NOAA

TAF
AMD KGPT 010103Z 0101/0124 14007KT P6SM OVC005
FM010500 17007KT 1/2SM FG OVC003
FM011500 VRB04KT 5SM BR VCSH BKN003
FM011700 20005KT 6SM BR VCSH BKN015
FM012000 02006KT P6SM BKN015

Example: see airport list